Flugplatz Uelzen

Für EDVU sind keine METAR/TAF Berichte vorhanden.
Es werden die Flugwettermeldungen vom Flugplatz Fassberg Airport in 20 km Entfernung angezeigt.

Bericht für ETHS

vom 14.11. um 11:20 UTC

Wind 7 kt aus 160°

Sichtweite 10 km oder mehr

aufgebrochene Bewölkung in 22000 ft

Temperatur 6.0°C

Taupunkt 2.0°C

Luftfeuchtigkeit 75%

Luftdruck 1007 hPa

ETHS 141120Z 16007KT 9999 BKN220 06/02 Q1007 BLU+BLU+

Prognose für ETHS

vom 14.11. um 00:00 UTC

Zwischen 00:00 UTC und 00:00 UTC

Wind 7 kt aus 120°

Sichtweite 10 km oder mehr

keine signifikanten Wettererscheinungen

gering bewölkt in 5000 ft

aufgebrochene Bewölkung in 22000 ft


Zwischen 00:00 und 00:00 UTC übergehend zu

Wind 9 kt aus 90°

Sichtweite 5000 m

feuchter Dunst

aufgelockert bewölkt in 900 ft

aufgebrochene Bewölkung in 23000 ft

TAF ETHS 141119Z 1412/1421 12007KT 9999 NSW FEW050 BKN220 BECMG 1419/1421 09009KT 5000 BR SCT009 BKN230
Impressum